createdAt,value
2022-08-30T00:01:14.061Z,13.78
2022-08-30T00:03:47.609Z,13.74
2022-08-30T00:06:17.094Z,13.76
2022-08-30T00:08:45.345Z,13.75
2022-08-30T00:11:16.874Z,13.65
2022-08-30T00:13:46.196Z,13.61
2022-08-30T00:16:14.839Z,13.57
2022-08-30T00:18:42.756Z,13.54
2022-08-30T00:21:11.491Z,13.57
2022-08-30T00:23:39.482Z,13.39
2022-08-30T00:26:07.274Z,13.34
2022-08-30T00:28:34.746Z,13.35
2022-08-30T00:31:02.617Z,13.33
2022-08-30T00:33:30.089Z,13.32
2022-08-30T00:35:57.763Z,13.30
2022-08-30T00:38:25.051Z,13.25
2022-08-30T00:40:52.966Z,13.28
2022-08-30T00:43:24.181Z,13.27
2022-08-30T00:45:53.031Z,13.20
2022-08-30T00:48:20.272Z,13.24
2022-08-30T00:50:52.599Z,13.27
2022-08-30T00:53:26.214Z,13.22
2022-08-30T00:55:54.473Z,13.21
2022-08-30T00:58:28.040Z,13.14
2022-08-30T01:00:58.442Z,13.11
2022-08-30T01:03:28.708Z,13.13
2022-08-30T01:05:57.633Z,13.17
2022-08-30T01:08:24.849Z,13.28
2022-08-30T01:10:53.841Z,13.25
2022-08-30T01:13:23.095Z,13.20
2022-08-30T01:15:50.920Z,13.06
2022-08-30T01:18:21.281Z,13.08
2022-08-30T01:21:07.785Z,13.02
2022-08-30T01:23:38.363Z,13.06
2022-08-30T01:26:06.435Z,12.91
2022-08-30T01:28:34.494Z,12.82
2022-08-30T01:31:02.035Z,12.81
2022-08-30T01:33:29.362Z,12.78
2022-08-30T01:36:01.123Z,12.75
2022-08-30T01:38:49.694Z,12.75
2022-08-30T01:41:21.584Z,12.74
2022-08-30T01:43:50.977Z,12.74
2022-08-30T01:46:21.351Z,12.76
2022-08-30T01:48:53.098Z,12.75
2022-08-30T01:51:22.934Z,12.76
2022-08-30T01:53:50.647Z,12.74
2022-08-30T01:56:18.234Z,12.75
2022-08-30T01:58:46.129Z,12.74
2022-08-30T02:01:16.751Z,12.71
2022-08-30T02:03:45.379Z,12.71
2022-08-30T02:06:17.553Z,12.79
2022-08-30T02:08:45.304Z,12.74
2022-08-30T02:11:14.437Z,12.70
2022-08-30T02:13:43.233Z,12.59
2022-08-30T02:16:16.080Z,12.66
2022-08-30T02:18:43.711Z,12.51
2022-08-30T02:21:12.120Z,12.38
2022-08-30T02:23:39.290Z,12.32
2022-08-30T02:26:06.594Z,12.25
2022-08-30T02:28:33.771Z,12.21
2022-08-30T02:31:01.638Z,12.16
2022-08-30T02:33:29.953Z,12.15
2022-08-30T02:35:57.334Z,12.07
2022-08-30T02:38:25.097Z,12.04
2022-08-30T02:40:52.441Z,12.08
2022-08-30T02:43:20.207Z,11.97
2022-08-30T02:45:47.880Z,11.94
2022-08-30T02:48:15.711Z,11.93
2022-08-30T02:50:49.617Z,11.89
2022-08-30T02:53:17.316Z,11.95
2022-08-30T02:55:44.901Z,11.89
2022-08-30T02:58:12.564Z,11.86
2022-08-30T03:00:41.404Z,11.87
2022-08-30T03:03:08.950Z,11.81
2022-08-30T03:05:39.821Z,11.81
2022-08-30T03:08:08.288Z,11.81
2022-08-30T03:10:36.039Z,11.78
2022-08-30T03:13:03.582Z,11.77
2022-08-30T03:15:30.966Z,11.75
2022-08-30T03:17:59.032Z,11.72
2022-08-30T03:20:26.286Z,11.71
2022-08-30T03:22:53.897Z,11.68
2022-08-30T03:25:22.053Z,11.66
2022-08-30T03:27:50.712Z,11.70
2022-08-30T03:30:19.844Z,11.65
2022-08-30T03:32:47.259Z,11.62
2022-08-30T03:35:16.174Z,11.60
2022-08-30T03:37:43.564Z,11.58
2022-08-30T03:40:13.675Z,11.56
2022-08-30T03:42:41.465Z,11.57
2022-08-30T03:45:11.369Z,11.61
2022-08-30T03:47:38.462Z,11.59
2022-08-30T03:50:10.995Z,11.60
2022-08-30T03:52:38.182Z,11.59
2022-08-30T03:55:06.715Z,11.60
2022-08-30T03:57:36.565Z,11.53
2022-08-30T04:00:06.900Z,11.58
2022-08-30T04:02:39.397Z,11.62
2022-08-30T04:05:07.270Z,11.59
2022-08-30T04:07:34.792Z,11.56
2022-08-30T04:10:02.390Z,11.50
2022-08-30T04:12:29.935Z,11.54
2022-08-30T04:14:57.302Z,11.56
2022-08-30T04:17:24.634Z,11.51
2022-08-30T04:19:51.788Z,11.51
2022-08-30T04:22:18.911Z,11.56
2022-08-30T04:24:46.110Z,11.54
2022-08-30T04:27:13.998Z,11.58
2022-08-30T04:29:41.220Z,11.59
2022-08-30T04:32:08.311Z,11.58
2022-08-30T04:34:35.542Z,11.57
2022-08-30T04:37:02.906Z,11.59
2022-08-30T04:39:31.500Z,11.61
2022-08-30T04:41:59.068Z,11.61
2022-08-30T04:44:27.498Z,11.62
2022-08-30T04:46:54.773Z,11.63
2022-08-30T04:49:22.902Z,11.61
2022-08-30T04:51:50.300Z,11.66
2022-08-30T04:54:17.529Z,11.64
2022-08-30T04:56:44.669Z,11.60
2022-08-30T04:59:11.850Z,11.65
2022-08-30T05:01:45.769Z,11.67
2022-08-30T05:04:16.987Z,11.80
2022-08-30T05:06:44.317Z,11.90
2022-08-30T05:09:11.798Z,12.02
2022-08-30T05:11:39.027Z,12.15
2022-08-30T05:14:06.343Z,12.28
2022-08-30T05:16:33.570Z,12.44
2022-08-30T05:19:00.964Z,12.52
2022-08-30T05:21:29.176Z,12.58
2022-08-30T05:23:59.895Z,12.68
2022-08-30T05:26:30.164Z,12.66
2022-08-30T05:28:57.770Z,12.58
2022-08-30T05:31:27.973Z,12.53
2022-08-30T05:33:56.074Z,12.47
2022-08-30T05:36:26.544Z,12.52
2022-08-30T05:38:54.847Z,12.65
2022-08-30T05:41:26.436Z,12.65
2022-08-30T05:43:59.266Z,12.67
2022-08-30T05:49:06.900Z,12.73
2022-08-30T05:51:36.001Z,12.72
2022-08-30T05:54:11.828Z,12.80
2022-08-30T05:56:41.257Z,12.87
2022-08-30T05:59:09.457Z,12.97
2022-08-30T06:01:40.050Z,13.05
2022-08-30T06:04:09.915Z,13.22
2022-08-30T06:06:39.768Z,13.29
2022-08-30T06:09:08.426Z,13.52
2022-08-30T06:11:37.065Z,13.61
2022-08-30T06:14:05.411Z,13.74
2022-08-30T06:16:33.293Z,13.85
2022-08-30T06:19:00.378Z,14.00
2022-08-30T06:21:34.743Z,14.23
2022-08-30T06:24:03.965Z,14.54
2022-08-30T06:28:59.810Z,14.96
2022-08-30T06:31:27.016Z,15.40
2022-08-30T06:33:54.721Z,15.59
2022-08-30T06:36:25.342Z,15.76
2022-08-30T06:38:54.787Z,16.02
2022-08-30T06:41:26.598Z,15.96
2022-08-30T06:43:54.683Z,15.83
2022-08-30T06:46:28.546Z,15.83
2022-08-30T06:48:56.844Z,15.83
2022-08-30T06:51:26.639Z,15.78
2022-08-30T06:53:54.126Z,15.80
2022-08-30T06:56:22.165Z,15.84
2022-08-30T06:58:50.301Z,15.93
2022-08-30T07:01:21.747Z,16.08
2022-08-30T07:03:49.832Z,16.28
2022-08-30T07:06:18.982Z,16.46
2022-08-30T07:08:46.983Z,16.44
2022-08-30T07:11:15.231Z,16.62
2022-08-30T07:13:42.438Z,16.67
2022-08-30T07:16:11.748Z,16.80
2022-08-30T07:18:50.994Z,17.10
2022-08-30T07:21:21.070Z,17.17
2022-08-30T07:23:53.192Z,17.13
2022-08-30T07:26:24.669Z,17.17
2022-08-30T07:28:55.927Z,17.25
2022-08-30T07:31:24.655Z,17.31
2022-08-30T07:33:52.337Z,17.30
2022-08-30T07:36:21.881Z,17.30
2022-08-30T07:38:50.480Z,17.37
2022-08-30T07:41:23.520Z,17.41
2022-08-30T07:43:50.919Z,17.51
2022-08-30T07:46:19.391Z,17.66
2022-08-30T07:48:47.206Z,17.66
2022-08-30T07:51:17.868Z,17.72
2022-08-30T07:53:45.383Z,17.82
2022-08-30T07:56:13.008Z,17.97
2022-08-30T07:58:40.240Z,18.08
2022-08-30T08:01:09.239Z,18.06
2022-08-30T08:03:36.865Z,18.09
2022-08-30T08:06:05.261Z,18.21
2022-08-30T08:08:32.928Z,18.31
2022-08-30T08:11:07.912Z,18.47
2022-08-30T08:13:44.661Z,18.52
2022-08-30T08:16:25.174Z,18.63
2022-08-30T08:18:54.095Z,18.75
2022-08-30T08:21:22.706Z,18.79
2022-08-30T08:23:51.403Z,18.92
2022-08-30T08:26:20.159Z,19.05
2022-08-30T08:28:47.490Z,19.28
2022-08-30T08:31:20.950Z,19.43
2022-08-30T08:33:48.604Z,19.54
2022-08-30T08:36:16.360Z,19.61
2022-08-30T08:38:43.521Z,19.79
2022-08-30T08:41:40.933Z,20.01
2022-08-30T08:44:24.593Z,20.16
2022-08-30T08:47:05.953Z,20.25
2022-08-30T08:49:36.177Z,20.46
2022-08-30T08:52:24.547Z,20.55
2022-08-30T08:54:59.053Z,20.61
2022-08-30T08:57:33.572Z,20.87
2022-08-30T09:00:01.178Z,20.84
2022-08-30T09:02:39.623Z,20.80
2022-08-30T09:05:07.752Z,20.66
2022-08-30T09:07:40.554Z,20.75
2022-08-30T09:10:08.675Z,20.95
2022-08-30T09:12:35.987Z,21.14
2022-08-30T09:15:27.550Z,21.16
2022-08-30T09:18:04.680Z,21.26
2022-08-30T09:20:35.311Z,21.24
2022-08-30T09:23:27.225Z,21.32
2022-08-30T09:26:07.654Z,21.22
2022-08-30T09:28:49.474Z,21.24
2022-08-30T09:31:26.342Z,21.19
2022-08-30T09:34:04.081Z,21.27
2022-08-30T09:36:46.711Z,21.45
2022-08-30T09:39:37.393Z,21.44
2022-08-30T09:42:23.806Z,21.57
2022-08-30T09:44:52.959Z,21.55
2022-08-30T09:47:31.756Z,21.58
2022-08-30T09:50:27.492Z,21.68
2022-08-30T09:53:09.828Z,21.77
2022-08-30T09:55:42.787Z,21.86
2022-08-30T09:58:26.783Z,21.89
2022-08-30T10:01:15.231Z,21.80
2022-08-30T10:04:07.519Z,21.89
2022-08-30T10:06:46.104Z,22.05
2022-08-30T10:09:39.140Z,22.16
2022-08-30T10:12:17.494Z,22.30
2022-08-30T10:15:04.437Z,22.05
2022-08-30T10:17:59.180Z,22.05
2022-08-30T10:21:03.084Z,22.20
2022-08-30T10:23:41.332Z,22.22
2022-08-30T10:26:34.422Z,22.36
2022-08-30T10:29:11.378Z,22.24
2022-08-30T10:32:01.533Z,22.05
2022-08-30T10:34:39.894Z,22.03
2022-08-30T10:37:29.898Z,22.14
2022-08-30T10:40:22.878Z,22.20
2022-08-30T10:42:54.029Z,22.51
2022-08-30T10:45:22.856Z,22.49
2022-08-30T10:48:21.690Z,22.62
2022-08-30T10:50:53.709Z,22.73
2022-08-30T10:53:32.901Z,22.95
2022-08-30T10:56:07.939Z,22.96
2022-08-30T10:58:39.016Z,23.20
2022-08-30T11:01:23.579Z,23.24
2022-08-30T11:04:20.705Z,23.10
2022-08-30T11:07:11.608Z,22.69
2022-08-30T11:09:54.713Z,22.25
2022-08-30T11:12:36.185Z,22.00
2022-08-30T11:15:25.291Z,21.85
2022-08-30T11:18:06.452Z,21.78
2022-08-30T11:20:45.530Z,21.77
2022-08-30T11:23:18.694Z,21.96
2022-08-30T11:25:57.631Z,22.26
2022-08-30T11:28:37.463Z,22.72
2022-08-30T11:31:17.952Z,22.89
2022-08-30T11:33:49.602Z,22.89
2022-08-30T11:36:29.034Z,22.95
2022-08-30T11:39:11.553Z,22.76
2022-08-30T11:41:48.068Z,22.60
2022-08-30T11:44:29.361Z,22.25
2022-08-30T11:46:59.241Z,22.12
2022-08-30T11:50:01.352Z,22.25
2022-08-30T11:52:28.759Z,22.25
2022-08-30T11:55:08.515Z,22.32
2022-08-30T11:58:17.372Z,22.26
2022-08-30T12:00:52.510Z,22.42
2022-08-30T12:03:21.016Z,22.73
2022-08-30T12:05:58.960Z,22.97
2022-08-30T12:08:36.185Z,23.00
2022-08-30T12:11:13.174Z,23.12
2022-08-30T12:13:43.317Z,22.94
2022-08-30T12:16:19.868Z,22.50
2022-08-30T12:19:18.213Z,22.49
2022-08-30T12:21:55.586Z,22.53
2022-08-30T12:24:34.844Z,22.49
2022-08-30T12:27:21.989Z,22.27
2022-08-30T12:30:01.580Z,21.99
2022-08-30T12:32:30.098Z,21.74
2022-08-30T12:35:04.101Z,21.52
2022-08-30T12:37:38.299Z,21.46
2022-08-30T12:40:18.988Z,21.31
2022-08-30T12:42:54.327Z,21.23
2022-08-30T12:45:26.300Z,21.20
2022-08-30T12:48:06.407Z,21.20
2022-08-30T12:50:43.247Z,21.19
2022-08-30T12:53:14.354Z,21.23
2022-08-30T12:56:00.466Z,21.19
2022-08-30T12:58:56.871Z,21.23
2022-08-30T13:01:25.228Z,21.13
2022-08-30T13:04:03.787Z,21.07
2022-08-30T13:07:02.864Z,21.17
2022-08-30T13:09:35.947Z,21.14
2022-08-30T13:12:20.382Z,21.25
2022-08-30T13:14:47.861Z,21.24
2022-08-30T13:17:24.918Z,21.37
2022-08-30T13:20:06.579Z,21.67
2022-08-30T13:22:39.702Z,22.02
2022-08-30T13:25:09.260Z,22.36
2022-08-30T13:27:38.458Z,22.36
2022-08-30T13:30:14.646Z,22.20
2022-08-30T13:32:43.132Z,22.19
2022-08-30T13:35:11.552Z,22.17
2022-08-30T13:37:47.362Z,22.00
2022-08-30T13:40:20.349Z,21.85
2022-08-30T13:42:47.943Z,21.52
2022-08-30T13:48:05.869Z,21.12
2022-08-30T13:50:33.660Z,20.94
2022-08-30T13:53:00.982Z,20.85
2022-08-30T13:55:28.469Z,20.84
2022-08-30T13:57:56.748Z,21.02
2022-08-30T14:00:25.829Z,21.13
2022-08-30T14:02:57.507Z,21.25
2022-08-30T14:05:50.448Z,21.48
2022-08-30T14:11:12.936Z,22.19
2022-08-30T14:16:31.532Z,22.26
2022-08-30T14:19:00.616Z,22.22
2022-08-30T14:21:29.185Z,21.94
2022-08-30T14:23:59.717Z,21.80
2022-08-30T14:26:35.819Z,21.51
2022-08-30T14:29:09.818Z,21.36
2022-08-30T14:31:39.166Z,21.28
2022-08-30T14:34:07.973Z,21.08
2022-08-30T14:36:37.859Z,20.94
2022-08-30T14:39:09.030Z,20.87
2022-08-30T14:41:43.914Z,20.90
2022-08-30T14:44:13.298Z,20.96
2022-08-30T14:46:41.182Z,21.20
2022-08-30T14:49:11.139Z,21.39
2022-08-30T14:51:39.091Z,21.70
2022-08-30T14:54:06.236Z,21.90
2022-08-30T14:56:33.636Z,22.07
2022-08-30T14:59:03.024Z,22.07
2022-08-30T15:01:31.547Z,22.07
2022-08-30T15:04:06.220Z,22.05
2022-08-30T15:06:39.123Z,22.04
2022-08-30T15:09:09.265Z,21.90
2022-08-30T15:11:38.147Z,21.71
2022-08-30T15:14:06.855Z,21.74
2022-08-30T15:16:36.426Z,21.63
2022-08-30T15:19:06.024Z,21.65
2022-08-30T15:21:40.609Z,21.70
2022-08-30T15:24:11.970Z,21.85
2022-08-30T15:26:43.465Z,21.87
2022-08-30T15:29:12.796Z,21.84
2022-08-30T15:31:40.575Z,21.71
2022-08-30T15:34:09.772Z,21.70
2022-08-30T15:36:39.104Z,21.67
2022-08-30T15:39:07.329Z,21.52
2022-08-30T15:41:36.025Z,21.45
2022-08-30T15:44:05.138Z,21.14
2022-08-30T15:46:34.895Z,20.92
2022-08-30T15:49:06.712Z,20.85
2022-08-30T15:51:41.109Z,20.59
2022-08-30T15:54:14.907Z,20.69
2022-08-30T15:56:44.823Z,20.66
2022-08-30T15:59:15.231Z,20.61
2022-08-30T16:01:45.086Z,20.67
2022-08-30T16:04:18.539Z,20.49
2022-08-30T16:06:46.434Z,20.52
2022-08-30T16:09:14.170Z,20.60
2022-08-30T16:11:41.745Z,20.64
2022-08-30T16:14:09.595Z,20.59
2022-08-30T16:16:39.915Z,20.50
2022-08-30T16:19:09.381Z,20.51
2022-08-30T16:21:39.996Z,20.51
2022-08-30T16:24:10.425Z,20.56
2022-08-30T16:26:38.162Z,20.46
2022-08-30T16:29:07.621Z,20.42
2022-08-30T16:31:38.512Z,20.40
2022-08-30T16:34:06.742Z,20.50
2022-08-30T16:36:36.001Z,20.42
2022-08-30T16:39:05.883Z,20.47
2022-08-30T16:41:37.183Z,20.34
2022-08-30T16:44:05.607Z,20.31
2022-08-30T16:46:34.515Z,20.22
2022-08-30T16:49:02.900Z,20.09
2022-08-30T16:51:32.963Z,20.05
2022-08-30T16:54:04.800Z,20.02
2022-08-30T16:56:33.221Z,20.06
2022-08-30T16:59:02.855Z,19.93
2022-08-30T17:01:35.349Z,19.90
2022-08-30T17:04:06.541Z,19.97
2022-08-30T17:09:22.279Z,20.01
2022-08-30T17:11:49.901Z,19.92
2022-08-30T17:14:21.582Z,19.78
2022-08-30T17:16:55.315Z,19.70
2022-08-30T17:19:27.004Z,19.63
2022-08-30T17:21:56.362Z,19.53
2022-08-30T17:24:26.095Z,19.42
2022-08-30T17:26:54.440Z,19.34
2022-08-30T17:29:21.837Z,19.30
2022-08-30T17:31:50.808Z,19.29
2022-08-30T17:34:21.811Z,19.16
2022-08-30T17:36:51.746Z,19.08
2022-08-30T17:39:18.974Z,19.01
2022-08-30T17:41:50.664Z,18.89
2022-08-30T17:44:20.559Z,18.81
2022-08-30T17:46:48.326Z,18.66
2022-08-30T17:49:15.571Z,18.52
2022-08-30T17:51:44.305Z,18.41
2022-08-30T17:54:12.981Z,18.38
2022-08-30T17:56:41.368Z,18.33
2022-08-30T17:59:11.548Z,18.28
2022-08-30T18:01:41.827Z,18.26
2022-08-30T18:04:10.784Z,18.23
2022-08-30T18:06:38.035Z,18.21
2022-08-30T18:09:08.981Z,18.14
2022-08-30T18:11:39.838Z,18.02
2022-08-30T18:14:10.873Z,17.93
2022-08-30T18:16:53.251Z,17.85
2022-08-30T18:19:23.519Z,17.80
2022-08-30T18:21:51.389Z,17.75
2022-08-30T18:24:18.804Z,17.69
2022-08-30T18:26:46.600Z,17.64
2022-08-30T18:29:13.834Z,17.65
2022-08-30T18:31:41.663Z,17.60
2022-08-30T18:34:12.506Z,17.70
2022-08-30T18:36:40.790Z,17.80
2022-08-30T18:39:09.253Z,17.74
2022-08-30T18:41:42.123Z,17.73
2022-08-30T18:44:26.663Z,17.69
2022-08-30T18:46:56.128Z,17.68
2022-08-30T18:49:25.740Z,17.76
2022-08-30T18:51:53.510Z,17.75
2022-08-30T18:54:21.548Z,17.70
2022-08-30T18:56:50.586Z,17.69
2022-08-30T18:59:20.215Z,17.66
2022-08-30T19:01:48.690Z,17.51
2022-08-30T19:04:30.135Z,17.53
2022-08-30T19:07:04.289Z,17.52
2022-08-30T19:09:31.747Z,17.44
2022-08-30T19:11:58.958Z,17.47
2022-08-30T19:14:28.150Z,17.46
2022-08-30T19:16:56.359Z,17.42
2022-08-30T19:19:23.927Z,17.42
2022-08-30T19:21:51.908Z,17.46
2022-08-30T19:24:20.118Z,17.45
2022-08-30T19:26:47.745Z,17.42
2022-08-30T19:29:15.031Z,17.31
2022-08-30T19:31:43.972Z,17.37
2022-08-30T19:34:13.445Z,17.32
2022-08-30T19:36:41.010Z,17.23
2022-08-30T19:39:09.864Z,17.31
2022-08-30T19:41:37.945Z,17.33
2022-08-30T19:44:05.941Z,17.25
2022-08-30T19:46:34.094Z,17.17
2022-08-30T19:49:04.744Z,17.18
2022-08-30T19:51:32.294Z,17.11
2022-08-30T19:54:01.009Z,17.03
2022-08-30T19:56:28.732Z,17.01
2022-08-30T19:58:56.184Z,17.06
2022-08-30T20:01:32.398Z,16.97
2022-08-30T20:04:04.244Z,16.89
2022-08-30T20:06:32.936Z,16.80
2022-08-30T20:09:00.807Z,16.84
2022-08-30T20:11:29.546Z,16.68
2022-08-30T20:13:58.153Z,16.57
2022-08-30T20:16:28.367Z,16.60
2022-08-30T20:19:07.968Z,16.63
2022-08-30T20:21:36.435Z,16.70
2022-08-30T20:24:05.405Z,16.53
2022-08-30T20:24:23.925Z,19.95
2022-08-30T20:26:37.998Z,16.40
2022-08-30T20:29:07.281Z,16.36
2022-08-30T20:31:35.559Z,16.39
2022-08-30T20:34:04.224Z,16.30
2022-08-30T20:36:32.575Z,16.20
2022-08-30T20:39:01.349Z,16.26
2022-08-30T20:41:30.654Z,16.26
2022-08-30T20:43:58.381Z,16.21
2022-08-30T20:46:26.459Z,16.13
2022-08-30T20:48:55.721Z,16.00
2022-08-30T20:51:23.189Z,16.01
2022-08-30T20:53:50.892Z,15.90
2022-08-30T20:56:21.772Z,15.95
2022-08-30T20:58:49.672Z,15.93
2022-08-30T21:01:16.808Z,15.88
2022-08-30T21:03:45.090Z,15.78
2022-08-30T21:06:12.405Z,15.76
2022-08-30T21:08:39.967Z,15.73
2022-08-30T21:11:07.529Z,15.68
2022-08-30T21:13:34.977Z,15.53
2022-08-30T21:16:03.545Z,15.44
2022-08-30T21:18:34.203Z,15.57
2022-08-30T21:21:13.431Z,15.64
2022-08-30T21:23:41.934Z,15.61
2022-08-30T21:26:10.462Z,15.68
2022-08-30T21:28:38.798Z,15.63
2022-08-30T21:31:12.870Z,15.65
2022-08-30T21:33:40.945Z,15.64
2022-08-30T21:36:28.150Z,15.59
2022-08-30T21:39:00.740Z,15.30
2022-08-30T21:41:30.522Z,15.20
2022-08-30T21:43:59.660Z,15.12
2022-08-30T21:46:29.100Z,15.07
2022-08-30T21:49:01.959Z,15.13
2022-08-30T21:51:34.076Z,15.17
2022-08-30T21:54:02.606Z,15.15
2022-08-30T21:56:30.016Z,15.28
2022-08-30T21:58:57.167Z,15.23
2022-08-30T22:01:28.273Z,15.04
2022-08-30T22:03:58.887Z,14.84
2022-08-30T22:06:30.723Z,14.71
2022-08-30T22:09:01.291Z,14.67
2022-08-30T22:11:31.630Z,14.67
2022-08-30T22:13:59.392Z,14.63
2022-08-30T22:16:28.816Z,14.69
2022-08-30T22:18:56.139Z,14.84
2022-08-30T22:21:26.906Z,14.67
2022-08-30T22:23:54.238Z,14.61
2022-08-30T22:26:21.881Z,14.61
2022-08-30T22:28:49.034Z,14.64
2022-08-30T22:31:17.803Z,14.65
2022-08-30T22:33:45.812Z,14.53
2022-08-30T22:36:32.183Z,14.44
2022-08-30T22:39:01.568Z,14.43
2022-08-30T22:41:30.580Z,14.31
2022-08-30T22:43:58.969Z,14.26
2022-08-30T22:46:34.413Z,14.23
2022-08-30T22:49:04.299Z,14.25
2022-08-30T22:51:31.734Z,14.21
2022-08-30T22:54:00.962Z,14.22
2022-08-30T22:56:29.288Z,14.18
2022-08-30T22:58:57.438Z,14.16
2022-08-30T23:01:31.229Z,14.13
2022-08-30T23:04:01.065Z,14.08
2022-08-30T23:06:29.283Z,14.07
2022-08-30T23:08:56.557Z,14.10
2022-08-30T23:11:24.169Z,14.09
2022-08-30T23:13:51.741Z,14.07
2022-08-30T23:16:19.802Z,14.13
2022-08-30T23:18:47.528Z,14.15
2022-08-30T23:21:20.230Z,14.16
2022-08-30T23:24:07.178Z,14.21
2022-08-30T23:26:53.760Z,14.24
2022-08-30T23:29:39.999Z,14.33
2022-08-30T23:32:25.940Z,14.41
2022-08-30T23:35:11.629Z,14.43
2022-08-30T23:37:57.561Z,14.36
2022-08-30T23:40:44.028Z,14.32
2022-08-30T23:43:30.159Z,14.32
2022-08-30T23:46:19.493Z,14.39
2022-08-30T23:49:07.152Z,14.40
2022-08-30T23:51:53.616Z,14.38
2022-08-30T23:54:41.267Z,14.35
2022-08-30T23:57:27.038Z,14.37
